Time;durP1;ratioP1;P1;durP2;ratioP2;P2;SDS_P1;SDS_P2;PMS_P1;PMS_P2;Temp;Humidity;BMP_temperature;BMP_pressure;BME280_temperature;BME280_humidity;BME280_pressure;Samples;Min_cycle;Max_cycle;Signal;HPM_P1;HPM_P2
2023/08/15 00:01:12;;;;;;;8.30;5.50;;;20.30;99.90;;;;;;5057140;28;20057;-69
2023/08/15 00:03:37;;;;;;;8.13;5.22;;;20.30;99.90;;;;;;5057337;28;20061;-69
2023/08/15 00:06:03;;;;;;;8.90;5.68;;;20.20;99.90;;;;;;5057364;28;20033;-69
2023/08/15 00:08:29;;;;;;;10.85;5.97;;;20.20;99.90;;;;;;5056512;28;20090;-69
2023/08/15 00:10:54;;;;;;;6.95;5.53;;;20.20;99.90;;;;;;5056964;28;20041;-69
2023/08/15 00:13:20;;;;;;;8.25;6.15;;;20.20;99.90;;;;;;5056288;28;20053;-69
2023/08/15 00:15:45;;;;;;;10.57;5.40;;;20.20;99.90;;;;;;5056061;28;20029;-69
2023/08/15 00:18:11;;;;;;;7.30;5.50;;;20.20;99.90;;;;;;5057092;28;20021;-69
2023/08/15 00:20:37;;;;;;;10.02;5.97;;;20.20;99.90;;;;;;5056586;28;20433;-69
2023/08/15 00:23:03;;;;;;;12.35;6.00;;;20.20;99.90;;;;;;5056724;28;20421;-69
2023/08/15 00:25:28;;;;;;;8.68;6.13;;;20.10;99.90;;;;;;5056957;28;20124;-69
2023/08/15 00:27:54;;;;;;;5.97;5.28;;;20.10;99.90;;;;;;5056641;28;20089;-69
2023/08/15 00:30:20;;;;;;;8.45;5.68;;;20.10;99.90;;;;;;5056508;28;20033;-69
2023/08/15 00:32:46;;;;;;;6.80;5.40;;;20.10;99.90;;;;;;5056583;28;20404;-69
2023/08/15 00:35:12;;;;;;;6.60;5.72;;;20.10;99.90;;;;;;5056007;28;20017;-69
2023/08/15 00:37:37;;;;;;;8.10;6.00;;;20.10;99.90;;;;;;5056329;28;20111;-69
2023/08/15 00:40:04;;;;;;;11.00;6.70;;;20.10;99.90;;;;;;5056715;28;20344;-69
2023/08/15 00:42:30;;;;;;;10.57;6.88;;;20.10;99.90;;;;;;5055696;28;20025;-69
2023/08/15 00:44:56;;;;;;;8.20;6.38;;;20.10;99.90;;;;;;5056604;28;20123;-68
2023/08/15 00:47:22;;;;;;;11.82;6.35;;;20.00;99.90;;;;;;5056632;28;20132;-69
2023/08/15 00:49:49;;;;;;;10.65;7.20;;;20.00;99.90;;;;;;5056516;28;20525;-68
2023/08/15 00:52:16;;;;;;;10.13;6.50;;;20.00;99.90;;;;;;5055497;28;20056;-68
2023/08/15 00:54:46;;;;;;;7.78;6.13;;;19.90;99.90;;;;;;5056432;28;20033;-68
2023/08/15 00:57:12;;;;;;;11.18;6.88;;;19.90;99.90;;;;;;5056087;28;20031;-68
2023/08/15 00:59:39;;;;;;;11.95;6.63;;;19.90;99.90;;;;;;5056226;28;20049;-69
2023/08/15 01:02:05;;;;;;;10.70;6.28;;;19.80;99.90;;;;;;5055553;28;20493;-69
2023/08/15 01:04:31;;;;;;;11.15;6.50;;;19.80;99.90;;;;;;5056137;28;20025;-69
2023/08/15 01:06:57;;;;;;;14.68;7.82;;;19.70;99.90;;;;;;5055909;28;20078;-69
2023/08/15 01:09:23;;;;;;;8.55;7.10;;;19.70;99.90;;;;;;5055528;28;20390;-69
2023/08/15 01:12:08;;;;;;;8.07;6.50;;;19.70;99.90;;;;;;5056106;28;20035;-69
2023/08/15 01:14:43;;;;;;;9.95;6.75;;;19.70;99.90;;;;;;5056008;28;20119;-69
2023/08/15 01:17:15;;;;;;;9.65;7.10;;;19.70;99.90;;;;;;5054809;28;20017;-69
2023/08/15 01:19:46;;;;;;;8.98;7.13;;;19.70;99.90;;;;;;5055989;28;20464;-69
2023/08/15 01:22:21;;;;;;;11.20;7.72;;;19.70;99.90;;;;;;5055907;28;20025;-69
2023/08/15 01:24:47;;;;;;;8.90;6.05;;;19.60;99.90;;;;;;5055516;28;20528;-69
2023/08/15 01:27:13;;;;;;;9.80;6.55;;;19.60;99.90;;;;;;5055350;28;20053;-69
2023/08/15 01:29:38;;;;;;;7.63;6.10;;;19.50;99.90;;;;;;5055334;28;20475;-69
2023/08/15 01:32:23;;;;;;;10.10;6.18;;;19.50;99.90;;;;;;5055377;28;20068;-69
2023/08/15 01:34:59;;;;;;;9.48;6.78;;;19.40;99.90;;;;;;5055630;28;20025;-69
2023/08/15 01:37:28;;;;;;;7.57;6.30;;;19.30;99.90;;;;;;5055592;28;20025;-69
2023/08/15 01:39:57;;;;;;;7.88;5.88;;;19.20;99.90;;;;;;5055511;28;20475;-69
2023/08/15 01:42:24;;;;;;;8.05;6.40;;;19.20;99.90;;;;;;5055196;28;20017;-69
2023/08/15 01:44:50;;;;;;;10.27;6.90;;;19.10;99.90;;;;;;5054876;28;20036;-69
2023/08/15 01:47:16;;;;;;;7.78;6.72;;;19.10;99.90;;;;;;5055136;28;20027;-69
2023/08/15 01:49:41;;;;;;;9.73;6.63;;;19.10;99.90;;;;;;5055378;28;20434;-70
2023/08/15 01:52:07;;;;;;;7.38;6.32;;;19.00;99.90;;;;;;5054384;28;20051;-70
2023/08/15 01:54:33;;;;;;;9.38;6.32;;;18.90;99.90;;;;;;5054751;28;20032;-70
2023/08/15 01:56:58;;;;;;;8.88;6.72;;;18.90;99.90;;;;;;5055234;28;20028;-69
2023/08/15 01:59:24;;;;;;;7.20;6.47;;;18.90;99.90;;;;;;5054944;28;20033;-69
2023/08/15 02:01:49;;;;;;;9.48;6.97;;;18.90;99.90;;;;;;5055165;28;20035;-69
2023/08/15 02:04:15;;;;;;;9.85;7.85;;;18.90;99.90;;;;;;5054531;28;20107;-70
2023/08/15 02:06:40;;;;;;;9.35;6.72;;;18.90;99.90;;;;;;5055027;28;20112;-70
2023/08/15 02:09:06;;;;;;;11.88;7.75;;;18.90;99.90;;;;;;5054889;28;20033;-70
2023/08/15 02:11:32;;;;;;;11.93;8.60;;;18.90;99.90;;;;;;5054608;28;20458;-69
2023/08/15 02:13:59;;;;;;;11.82;8.45;;;18.90;99.90;;;;;;5053582;28;20154;-69
2023/08/15 02:16:24;;;;;;;8.63;7.68;;;19.00;99.90;;;;;;5054452;28;20029;-70
2023/08/15 02:18:50;;;;;;;9.57;8.13;;;18.90;99.90;;;;;;5054367;28;20136;-69
2023/08/15 02:21:16;;;;;;;8.20;7.35;;;19.00;99.90;;;;;;5054202;28;20040;-69
2023/08/15 02:23:41;;;;;;;10.25;7.70;;;18.90;99.90;;;;;;5054706;28;20466;-70
2023/08/15 02:26:07;;;;;;;9.25;7.50;;;18.90;99.90;;;;;;5054704;28;20490;-69
2023/08/15 02:28:32;;;;;;;10.18;8.13;;;18.90;99.90;;;;;;5054110;28;20032;-69
2023/08/15 02:30:58;;;;;;;11.38;7.30;;;18.90;99.90;;;;;;5054344;28;20033;-69
2023/08/15 02:33:24;;;;;;;9.23;7.90;;;18.80;99.90;;;;;;5054420;28;20150;-69
2023/08/15 02:35:52;;;;;;;12.00;8.65;;;18.80;99.90;;;;;;5054570;28;20040;-70
2023/08/15 02:38:17;;;;;;;15.00;8.40;;;18.80;99.90;;;;;;5054084;28;20512;-70
2023/08/15 02:40:43;;;;;;;14.55;9.27;;;18.70;99.90;;;;;;5054264;28;20029;-70
2023/08/15 02:43:09;;;;;;;9.93;8.40;;;18.80;99.90;;;;;;5054453;28;20028;-69
2023/08/15 02:45:35;;;;;;;9.65;8.32;;;18.70;99.90;;;;;;5054060;28;20033;-69
2023/08/15 02:48:00;;;;;;;12.25;8.55;;;18.80;99.90;;;;;;5053425;28;20059;-69
2023/08/15 02:50:27;;;;;;;10.40;7.70;;;18.80;99.90;;;;;;5053864;28;20028;-69
2023/08/15 02:52:53;;;;;;;10.50;7.63;;;18.80;99.90;;;;;;5052816;28;20052;-69
2023/08/15 02:55:18;;;;;;;8.27;7.47;;;18.80;99.90;;;;;;5054319;28;20025;-69
2023/08/15 02:57:44;;;;;;;13.85;8.02;;;18.80;99.90;;;;;;5054255;28;20029;-69
2023/08/15 03:00:10;;;;;;;9.77;7.45;;;18.80;99.90;;;;;;5053494;28;20082;-70
2023/08/15 03:02:36;;;;;;;8.00;7.15;;;18.80;99.90;;;;;;5053905;28;20085;-70
2023/08/15 03:05:02;;;;;;;10.10;7.85;;;18.80;99.90;;;;;;5054129;28;20028;-69
2023/08/15 03:07:27;;;;;;;8.82;7.25;;;18.80;99.90;;;;;;5054097;28;20033;-70
2023/08/15 03:09:53;;;;;;;9.50;7.00;;;18.70;99.90;;;;;;5053892;28;20044;-69
2023/08/15 03:12:18;;;;;;;10.20;7.28;;;18.70;99.90;;;;;;5053970;28;20028;-70
2023/08/15 03:14:44;;;;;;;9.35;7.65;;;18.70;99.90;;;;;;5053806;28;20044;-69
2023/08/15 03:17:10;;;;;;;10.25;8.15;;;18.70;99.90;;;;;;5053487;28;20071;-69
2023/08/15 03:19:36;;;;;;;10.57;8.27;;;18.70;99.90;;;;;;5053459;28;20386;-70
2023/08/15 03:22:01;;;;;;;10.48;7.93;;;18.70;99.90;;;;;;5053880;28;20060;-69
2023/08/15 03:24:28;;;;;;;10.60;7.45;;;18.70;99.90;;;;;;5052820;28;20032;-69
2023/08/15 03:26:53;;;;;;;8.15;7.28;;;18.70;99.90;;;;;;5057794;28;20033;-69
2023/08/15 03:29:19;;;;;;;13.00;8.23;;;18.80;99.90;;;;;;5057817;28;20033;-69
2023/08/15 03:31:44;;;;;;;9.70;8.13;;;18.80;99.90;;;;;;5057684;28;20121;-70
2023/08/15 03:34:10;;;;;;;10.60;8.38;;;18.80;99.90;;;;;;5056777;28;20025;-70
2023/08/15 03:36:36;;;;;;;10.55;8.80;;;18.80;99.90;;;;;;5057803;28;20052;-70
2023/08/15 03:39:01;;;;;;;11.60;8.00;;;18.80;99.90;;;;;;5057867;28;20029;-69
2023/08/15 03:41:27;;;;;;;9.65;7.93;;;18.80;99.90;;;;;;5057098;28;20359;-69
2023/08/15 03:43:52;;;;;;;14.40;8.85;;;18.80;99.90;;;;;;5057266;28;20492;-70
2023/08/15 03:46:19;;;;;;;15.10;10.10;;;18.80;99.90;;;;;;5057640;28;20363;-70
2023/08/15 03:48:44;;;;;;;12.50;9.88;;;18.90;99.90;;;;;;5057608;28;20028;-70
2023/08/15 03:51:10;;;;;;;11.48;9.43;;;18.90;99.90;;;;;;5057250;28;20466;-70
2023/08/15 03:53:36;;;;;;;9.73;8.70;;;18.90;99.90;;;;;;5056664;28;20033;-69
2023/08/15 03:56:01;;;;;;;10.07;8.20;;;19.00;99.90;;;;;;5056642;28;20029;-69
2023/08/15 03:58:27;;;;;;;9.73;8.15;;;19.00;99.90;;;;;;5057490;28;20040;-70
2023/08/15 04:00:53;;;;;;;10.68;8.20;;;19.10;99.90;;;;;;5056944;28;20032;-70
2023/08/15 04:03:19;;;;;;;9.20;7.63;;;19.10;99.90;;;;;;5056850;28;20025;-70
2023/08/15 04:05:45;;;;;;;11.73;8.05;;;19.20;99.90;;;;;;5056693;28;20106;-70
2023/08/15 04:08:11;;;;;;;11.82;9.88;;;19.20;99.90;;;;;;5056222;28;20025;-70
2023/08/15 04:10:39;;;;;;;12.77;8.25;;;19.20;99.90;;;;;;5056501;28;20029;-70
2023/08/15 04:13:07;;;;;;;12.90;9.80;;;19.30;99.90;;;;;;5057082;28;20071;-69
2023/08/15 04:15:34;;;;;;;12.18;8.15;;;19.30;99.90;;;;;;5056231;28;20021;-69
2023/08/15 04:18:01;;;;;;;11.50;9.52;;;19.30;99.90;;;;;;5056659;28;20025;-70
2023/08/15 04:20:27;;;;;;;13.93;9.25;;;19.30;99.90;;;;;;5056749;28;20470;-70
2023/08/15 04:22:52;;;;;;;11.55;9.85;;;19.20;99.90;;;;;;5056296;28;20025;-71
2023/08/15 04:25:18;;;;;;;13.52;10.38;;;19.30;99.90;;;;;;5056693;28;20222;-71
2023/08/15 04:27:43;;;;;;;12.10;9.75;;;19.30;99.90;;;;;;5056913;28;20383;-71
2023/08/15 04:30:09;;;;;;;15.75;9.70;;;19.30;99.90;;;;;;5056877;28;20471;-70
2023/08/15 04:32:35;;;;;;;11.38;9.90;;;19.30;99.90;;;;;;5056438;28;20036;-70
2023/08/15 04:35:00;;;;;;;12.38;10.35;;;19.30;99.90;;;;;;5056512;28;20124;-70
2023/08/15 04:37:26;;;;;;;14.93;10.43;;;19.30;99.90;;;;;;5055863;28;20478;-70
2023/08/15 04:39:52;;;;;;;15.07;11.05;;;19.30;99.90;;;;;;5056641;28;20029;-70
2023/08/15 04:42:17;;;;;;;16.85;12.45;;;19.40;99.90;;;;;;5056579;28;20047;-71
2023/08/15 04:44:43;;;;;;;18.13;13.30;;;19.60;99.90;;;;;;5056628;28;20040;-71
2023/08/15 04:47:08;;;;;;;15.75;12.43;;;19.80;99.90;;;;;;5056021;28;20021;-71
2023/08/15 04:49:34;;;;;;;13.45;10.55;;;19.90;99.90;;;;;;5056507;28;20029;-71
2023/08/15 04:52:00;;;;;;;16.60;11.15;;;20.10;99.90;;;;;;5055702;28;20411;-70
2023/08/15 04:54:26;;;;;;;16.83;10.30;;;20.10;99.90;;;;;;5055825;28;20463;-70
2023/08/15 04:56:52;;;;;;;12.70;9.50;;;20.10;99.90;;;;;;5056087;28;20040;-69
2023/08/15 04:59:18;;;;;;;13.82;8.77;;;20.10;99.90;;;;;;5056339;28;20036;-71
2023/08/15 05:01:44;;;;;;;11.23;7.97;;;20.10;99.90;;;;;;5055934;28;20055;-71
2023/08/15 05:04:10;;;;;;;9.98;7.35;;;20.10;99.90;;;;;;5055981;28;20037;-71
2023/08/15 05:06:36;;;;;;;10.50;7.32;;;20.00;99.90;;;;;;5055603;28;20037;-71
2023/08/15 05:09:01;;;;;;;11.75;7.78;;;20.00;99.90;;;;;;5055837;28;20120;-70
2023/08/15 05:11:27;;;;;;;11.60;7.18;;;20.10;99.90;;;;;;5055813;28;20114;-71
2023/08/15 05:13:53;;;;;;;16.08;7.88;;;20.00;99.90;;;;;;5055734;28;20076;-70
2023/08/15 05:16:18;;;;;;;12.40;7.75;;;20.10;99.90;;;;;;5055752;28;20550;-70
2023/08/15 05:18:44;;;;;;;12.02;7.40;;;20.10;99.90;;;;;;5054711;28;20418;-70
2023/08/15 05:21:09;;;;;;;10.02;7.32;;;20.00;99.90;;;;;;5055282;28;20119;-70
2023/08/15 05:23:35;;;;;;;12.70;7.55;;;20.00;99.90;;;;;;5054882;28;20028;-70
2023/08/15 05:26:01;;;;;;;10.90;7.07;;;20.10;99.90;;;;;;5055515;28;20036;-70
2023/08/15 05:28:26;;;;;;;14.00;7.20;;;20.00;99.90;;;;;;5055145;28;20075;-70
2023/08/15 05:30:52;;;;;;;9.57;6.63;;;20.00;99.90;;;;;;5055411;28;20360;-70
2023/08/15 05:33:17;;;;;;;10.98;7.25;;;20.00;99.90;;;;;;5054644;28;20120;-70
2023/08/15 05:35:43;;;;;;;9.32;6.95;;;20.10;99.90;;;;;;5054834;28;20036;-71
2023/08/15 05:38:09;;;;;;;11.20;6.90;;;20.10;99.90;;;;;;5055318;28;20025;-70
2023/08/15 05:40:34;;;;;;;9.80;7.13;;;20.10;99.90;;;;;;5055307;28;20390;-70
2023/08/15 05:43:00;;;;;;;10.27;7.38;;;20.00;99.90;;;;;;5055114;28;20025;-71
2023/08/15 05:45:26;;;;;;;11.82;7.32;;;20.10;99.90;;;;;;5055329;28;20037;-71
2023/08/15 05:47:51;;;;;;;9.85;7.05;;;20.10;99.90;;;;;;5055619;28;20037;-70
2023/08/15 05:50:17;;;;;;;11.07;7.57;;;20.10;99.90;;;;;;5055618;28;20355;-71
2023/08/15 05:52:42;;;;;;;10.07;7.93;;;20.20;99.90;;;;;;5054305;28;20487;-71
2023/08/15 05:55:08;;;;;;;11.07;7.28;;;20.20;99.90;;;;;;5055094;28;20056;-71
2023/08/15 05:57:34;;;;;;;11.18;7.90;;;20.30;99.90;;;;;;5054716;28;20029;-71
2023/08/15 05:59:59;;;;;;;10.55;7.68;;;20.30;99.90;;;;;;5055366;28;20103;-71
2023/08/15 06:02:25;;;;;;;10.00;7.13;;;20.30;99.90;;;;;;5055045;28;20120;-69
2023/08/15 06:04:51;;;;;;;8.25;6.10;;;20.20;99.90;;;;;;5064432;28;20063;-70
2023/08/15 06:07:16;;;;;;;9.60;6.70;;;20.20;99.90;;;;;;5060774;28;20025;-70
2023/08/15 06:09:43;;;;;;;11.07;6.18;;;20.20;99.90;;;;;;5064569;28;20024;-69
2023/08/15 06:12:09;;;;;;;9.45;6.18;;;20.20;99.90;;;;;;5071802;28;20351;-69
2023/08/15 06:14:38;;;;;;;13.55;7.72;;;20.30;99.90;;;;;;5069770;28;20035;-70
2023/08/15 06:17:05;;;;;;;8.85;5.93;;;20.30;99.90;;;;;;5063315;28;20074;-70
2023/08/15 06:19:30;;;;;;;7.07;6.10;;;20.30;99.90;;;;;;5055896;28;20466;-69
2023/08/15 06:21:56;;;;;;;8.77;5.72;;;20.30;99.90;;;;;;5062344;28;20039;-70
2023/08/15 06:24:21;;;;;;;9.13;6.15;;;20.30;99.90;;;;;;5069131;28;20411;-70
2023/08/15 06:26:47;;;;;;;8.15;5.88;;;20.30;99.90;;;;;;5069856;28;20037;-70
2023/08/15 06:29:13;;;;;;;10.30;6.40;;;20.40;99.90;;;;;;5072874;28;20025;-69
2023/08/15 06:31:38;;;;;;;9.82;6.80;;;20.40;99.90;;;;;;5064694;28;20040;-72
2023/08/15 06:34:04;;;;;;;10.68;6.55;;;20.50;99.90;;;;;;5057119;28;20072;-71
2023/08/15 06:36:31;;;;;;;8.80;7.75;;;20.50;99.90;;;;;;5065066;28;20021;-70
2023/08/15 06:38:56;;;;;;;9.73;6.88;;;20.50;99.90;;;;;;5061745;28;20525;-70
2023/08/15 06:41:22;;;;;;;12.40;7.28;;;20.60;99.90;;;;;;5063132;28;20067;-71
2023/08/15 06:43:48;;;;;;;11.68;6.75;;;20.60;99.90;;;;;;5057358;28;20125;-70
2023/08/15 06:46:14;;;;;;;9.07;6.45;;;20.70;99.90;;;;;;5065009;28;20400;-70
2023/08/15 06:48:40;;;;;;;14.95;7.43;;;20.80;99.90;;;;;;5068901;28;20469;-70
2023/08/15 06:51:06;;;;;;;12.38;7.28;;;20.80;99.90;;;;;;5058631;28;20124;-70
2023/08/15 06:53:32;;;;;;;9.52;6.93;;;20.90;99.90;;;;;;5067825;28;20119;-70
2023/08/15 06:55:58;;;;;;;12.57;7.78;;;21.10;99.90;;;;;;5065667;28;20025;-71
2023/08/15 06:58:26;;;;;;;10.43;6.97;;;;;;;;;;5051217;28;20089;-71
2023/08/15 07:00:52;;;;;;;10.35;6.15;;;22.90;99.90;;;;;;5066966;28;20032;-72
2023/08/15 07:03:18;;;;;;;9.00;4.95;;;23.50;99.90;;;;;;5056758;28;20094;-71
2023/08/15 07:05:45;;;;;;;15.10;5.72;;;24.20;99.90;;;;;;5055655;28;20032;-71
2023/08/15 07:08:13;;;;;;;7.03;4.90;;;24.40;99.90;;;;;;5055781;28;20571;-72
2023/08/15 07:10:39;;;;;;;9.52;5.53;;;24.60;99.90;;;;;;5055492;28;20047;-71
2023/08/15 07:13:05;;;;;;;8.25;5.88;;;24.80;74.50;;;;;;5059071;28;20040;-72
2023/08/15 07:15:31;;;;;;;9.45;6.05;;;24.00;99.90;;;;;;5069373;28;20029;-70
2023/08/15 07:17:57;;;;;;;12.73;6.45;;;24.10;99.90;;;;;;5072780;28;20033;-70
2023/08/15 07:20:23;;;;;;;10.27;7.05;;;24.10;99.90;;;;;;5050467;28;20028;-71
2023/08/15 07:22:49;;;;;;;10.55;6.32;;;23.80;99.90;;;;;;5051534;28;20037;-71
2023/08/15 07:25:15;;;;;;;10.85;5.30;;;24.10;99.90;;;;;;5055558;28;20486;-72
2023/08/15 07:27:41;;;;;;;9.43;6.15;;;24.60;99.90;;;;;;5054289;28;20036;-72
2023/08/15 07:30:07;;;;;;;9.25;5.93;;;24.50;94.10;;;;;;5057944;28;20123;-70
2023/08/15 07:32:36;;;;;;;9.82;7.07;;;23.90;99.90;;;;;;5060302;28;20390;-69
2023/08/15 07:35:03;;;;;;;7.45;6.43;;;23.50;99.90;;;;;;5059204;28;20025;-69
2023/08/15 07:37:29;;;;;;;9.48;7.30;;;23.20;99.90;;;;;;5058997;28;20385;-70
2023/08/15 07:40:00;;;;;;;11.07;7.32;;;23.10;99.90;;;;;;5063494;28;20036;-69
2023/08/15 07:42:27;;;;;;;10.52;7.20;;;22.90;99.90;;;;;;5062940;28;20017;-69
2023/08/15 07:44:53;;;;;;;13.88;7.60;;;22.80;99.90;;;;;;5063308;28;20040;-69
2023/08/15 07:47:19;;;;;;;9.23;6.72;;;22.90;99.90;;;;;;5069886;28;20385;-70
2023/08/15 07:49:44;;;;;;;9.63;7.38;;;23.00;99.90;;;;;;5061593;28;20020;-70
2023/08/15 07:52:10;;;;;;;9.30;6.65;;;23.70;99.90;;;;;;5053754;28;20502;-70
2023/08/15 07:54:36;;;;;;;9.65;5.60;;;24.40;99.90;;;;;;5066708;28;20040;-70
2023/08/15 07:57:01;;;;;;;10.25;5.97;;;24.80;94.90;;;;;;5061879;28;20502;-69
2023/08/15 07:59:27;;;;;;;7.38;5.50;;;24.50;83.00;;;;;;5068372;28;20024;-70
2023/08/15 08:01:52;;;;;;;9.50;5.57;;;24.70;99.90;;;;;;5072869;28;20029;-69
2023/08/15 08:04:19;;;;;;;9.50;7.25;;;24.60;99.90;;;;;;5062138;28;20033;-70
2023/08/15 08:06:45;;;;;;;10.57;7.10;;;23.70;99.90;;;;;;5056903;28;20028;-70
2023/08/15 08:09:11;;;;;;;13.50;6.90;;;23.30;99.90;;;;;;5071933;28;20036;-70
2023/08/15 08:11:37;;;;;;;13.93;7.43;;;23.10;99.90;;;;;;5066743;28;20039;-69
2023/08/15 08:14:03;;;;;;;10.35;7.32;;;22.90;99.90;;;;;;5075911;28;20440;-69
2023/08/15 08:16:29;;;;;;;14.00;9.00;;;22.90;99.90;;;;;;5081656;28;20028;-69
2023/08/15 08:18:55;;;;;;;13.68;9.65;;;22.60;99.90;;;;;;5075110;28;20486;-70
2023/08/15 08:21:21;;;;;;;14.32;9.38;;;22.50;99.90;;;;;;5066073;28;20399;-70
2023/08/15 08:23:46;;;;;;;12.95;9.63;;;22.50;99.90;;;;;;5058416;28;20046;-70
2023/08/15 08:26:12;;;;;;;12.90;9.95;;;22.40;99.90;;;;;;5074707;28;20047;-69
2023/08/15 08:28:37;;;;;;;13.27;9.68;;;22.30;99.90;;;;;;5062637;28;20043;-70
2023/08/15 08:31:04;;;;;;;16.20;10.38;;;22.30;99.90;;;;;;5073468;28;20497;-70
2023/08/15 08:33:29;;;;;;;19.23;10.90;;;22.30;99.90;;;;;;5074482;28;20029;-69
2023/08/15 08:35:56;;;;;;;18.35;9.48;;;22.30;99.90;;;;;;5074486;28;20057;-70
2023/08/15 08:38:21;;;;;;;13.98;9.77;;;22.50;99.90;;;;;;5060377;28;20444;-70
2023/08/15 08:40:47;;;;;;;16.30;9.98;;;22.60;99.90;;;;;;5066603;28;20032;-71
2023/08/15 08:43:15;;;;;;;12.93;8.98;;;22.70;99.90;;;;;;5065160;28;20036;-70
2023/08/15 08:45:47;;;;;;;13.10;8.77;;;22.60;99.90;;;;;;5060423;28;20037;-70
2023/08/15 08:48:15;;;;;;;13.82;9.45;;;22.80;99.90;;;;;;5065951;28;20418;-70
2023/08/15 08:50:41;;;;;;;14.13;8.90;;;22.90;99.90;;;;;;5063224;28;20029;-70
2023/08/15 08:53:07;;;;;;;10.82;7.93;;;23.20;99.90;;;;;;5065682;28;20497;-70
2023/08/15 08:55:33;;;;;;;15.57;8.18;;;23.50;99.90;;;;;;5063799;28;20029;-70
2023/08/15 08:58:02;;;;;;;13.00;8.35;;;23.50;99.90;;;;;;5065767;28;20047;-71
2023/08/15 09:00:32;;;;;;;16.48;7.80;;;23.40;94.50;;;;;;5062858;28;20021;-70
2023/08/15 09:02:58;;;;;;;11.80;7.75;;;23.50;99.90;;;;;;5069603;28;20028;-70
2023/08/15 09:05:24;;;;;;;16.88;8.45;;;23.50;98.50;;;;;;5071564;28;20033;-71
2023/08/15 09:07:51;;;;;;;17.05;8.55;;;23.60;73.80;;;;;;5071381;28;20127;-70
2023/08/15 09:10:17;;;;;;;17.23;7.50;;;23.70;53.30;;;;;;5065541;28;20408;-70
2023/08/15 09:12:45;;;;;;;12.52;7.25;;;23.40;19.90;;;;;;5070570;28;20029;-70
2023/08/15 09:15:11;;;;;;;10.35;6.28;;;23.10;18.30;;;;;;5072705;28;20024;-72
2023/08/15 09:17:38;;;;;;;11.38;5.75;;;23.20;22.80;;;;;;5057278;28;20021;-70
2023/08/15 09:20:10;;;;;;;16.48;6.22;;;23.00;1.00;;;;;;5062246;28;20032;-69
2023/08/15 09:22:39;;;;;;;13.40;6.10;;;23.00;1.00;;;;;;5056589;28;20039;-69
2023/08/15 09:25:05;;;;;;;9.38;5.85;;;22.90;7.70;;;;;;5065375;28;20021;-69
2023/08/15 09:27:30;;;;;;;11.27;6.25;;;22.90;1.00;;;;;;5069234;28;20035;-69
2023/08/15 09:29:56;;;;;;;11.98;6.20;;;23.10;19.30;;;;;;5057934;28;20033;-69
2023/08/15 09:32:22;;;;;;;10.45;5.10;;;23.30;1.00;;;;;;5062664;28;20419;-71
2023/08/15 09:34:47;;;;;;;11.57;5.80;;;23.50;1.00;;;;;;5068791;28;20033;-69
2023/08/15 09:37:13;;;;;;;11.45;6.40;;;23.50;1.00;;;;;;5068396;28;20033;-70
2023/08/15 09:39:39;;;;;;;8.25;5.60;;;23.60;1.00;;;;;;5066384;28;20024;-72
2023/08/15 09:42:05;;;;;;;12.02;6.53;;;23.60;1.00;;;;;;5058674;28;20029;-69
2023/08/15 09:44:34;;;;;;;13.48;7.38;;;23.80;1.00;;;;;;5059400;28;20158;-70
2023/08/15 09:47:01;;;;;;;11.15;6.35;;;23.80;1.00;;;;;;5071618;28;20119;-70
2023/08/15 09:49:30;;;;;;;13.05;7.32;;;24.90;1.00;;;;;;5060840;28;20060;-69
2023/08/15 09:51:59;;;;;;;13.68;7.25;;;25.40;1.00;;;;;;5066481;28;20059;-70
2023/08/15 09:54:25;;;;;;;12.63;7.00;;;25.30;1.00;;;;;;5054119;28;20041;-70
2023/08/15 09:56:51;;;;;;;13.88;7.20;;;25.50;1.00;;;;;;5058825;28;20066;-72
2023/08/15 09:59:17;;;;;;;12.80;7.30;;;24.90;1.00;;;;;;5056992;28;20029;-69
2023/08/15 10:01:46;;;;;;;13.50;7.25;;;24.90;1.00;;;;;;5059916;28;20036;-70
2023/08/15 10:04:13;;;;;;;13.57;7.90;;;24.60;1.00;;;;;;5065673;28;20024;-70
2023/08/15 10:06:42;;;;;;;14.35;7.07;;;24.50;1.00;;;;;;5065989;28;20032;-70
2023/08/15 10:09:09;;;;;;;11.50;7.10;;;24.70;1.00;;;;;;5063285;28;20024;-72
2023/08/15 10:11:39;;;;;;;12.32;6.70;;;25.00;1.00;;;;;;5066852;28;20032;-71
2023/08/15 10:14:07;;;;;;;15.18;7.22;;;25.40;99.90;;;;;;5072667;28;20040;-69
2023/08/15 10:16:33;;;;;;;10.40;6.20;;;25.80;99.90;;;;;;5073795;28;20024;-70
2023/08/15 10:18:59;;;;;;;9.50;6.18;;;26.20;99.90;;;;;;5069063;28;20024;-70
2023/08/15 10:21:26;;;;;;;7.53;6.03;;;;;;;;;;5072291;28;20119;-70
2023/08/15 10:23:55;;;;;;;10.32;5.97;;;26.90;1.00;;;;;;5067515;28;20042;-70
2023/08/15 10:26:21;;;;;;;11.98;5.88;;;27.40;99.90;;;;;;5070917;28;20142;-70
2023/08/15 10:28:47;;;;;;;8.73;5.40;;;27.30;26.80;;;;;;5070881;28;20107;-70
2023/08/15 10:31:13;;;;;;;12.02;6.00;;;27.30;1.00;;;;;;5073538;28;20028;-70
2023/08/15 10:33:41;;;;;;;8.95;5.65;;;27.60;99.90;;;;;;5073801;28;20082;-73
2023/08/15 10:36:08;;;;;;;8.40;4.63;;;27.80;99.90;;;;;;5066304;28;20029;-70
2023/08/15 10:38:40;;;;;;;9.75;4.47;;;27.70;99.90;;;;;;5070722;28;20024;-70
2023/08/15 10:41:13;;;;;;;6.95;4.40;;;27.40;1.00;;;;;;5073136;28;20073;-70
2023/08/15 10:43:38;;;;;;;13.18;4.25;;;28.00;1.00;;;;;;5068288;28;20105;-70
2023/08/15 10:46:06;;;;;;;8.60;4.40;;;27.90;52.50;;;;;;5073128;28;20049;-70
2023/08/15 10:48:54;;;;;;;11.20;4.60;;;27.40;1.00;;;;;;5073343;28;20024;-70
2023/08/15 10:51:25;;;;;;;10.50;4.97;;;27.40;99.90;;;;;;5073179;28;20099;-69
2023/08/15 10:53:56;;;;;;;13.60;4.68;;;27.70;1.00;;;;;;5064314;28;20037;-69
2023/08/15 10:56:25;;;;;;;11.77;5.15;;;27.20;99.90;;;;;;5063653;28;20439;-69
2023/08/15 10:58:51;;;;;;;12.10;5.75;;;27.10;99.90;;;;;;5066307;28;20044;-70
2023/08/15 11:01:18;;;;;;;10.15;3.90;;;27.00;99.90;;;;;;5060400;28;20520;-69
2023/08/15 11:03:46;;;;;;;8.85;3.70;;;;;;;;;;5065051;28;20028;-69
2023/08/15 11:06:13;;;;;;;7.97;3.47;;;;;;;;;;5071939;28;20028;-69
2023/08/15 11:08:41;;;;;;;8.65;3.38;;;;;;;;;;5069353;28;20040;-69
2023/08/15 11:11:08;;;;;;;8.70;3.55;;;;;;;;;;5057372;28;20033;-68
2023/08/15 11:13:38;;;;;;;6.82;3.10;;;;;;;;;;5061857;28;20025;-68
2023/08/15 11:16:04;;;;;;;8.18;3.45;;;;;;;;;;5061904;28;20524;-68
2023/08/15 11:18:30;;;;;;;7.90;3.45;;;;;;;;;;5071288;28;20025;-69
2023/08/15 11:20:56;;;;;;;6.57;3.35;;;;;;;;;;5054680;28;20083;-71
2023/08/15 11:23:22;;;;;;;7.75;3.10;;;;;;;;;;5051363;28;20552;-69
2023/08/15 11:25:48;;;;;;;7.20;3.28;;;;;;;;;;5055773;28;20040;-70
2023/08/15 11:28:14;;;;;;;8.65;3.45;;;;;;;;;;5073055;28;20090;-71
2023/08/15 11:30:41;;;;;;;6.65;2.75;;;;;;;;;;5068331;28;20029;-69
2023/08/15 11:33:07;;;;;;;6.85;3.28;;;;;;;;;;5071681;28;20120;-69
2023/08/15 11:35:33;;;;;;;6.97;3.00;;;;;;;;;;5076038;28;20026;-69
2023/08/15 11:38:00;;;;;;;6.95;3.38;;;;;;;;;;5070971;28;20028;-68
2023/08/15 11:40:26;;;;;;;10.55;3.95;;;;;;;;;;5072275;28;20054;-72
2023/08/15 11:42:54;;;;;;;8.95;3.50;;;;;;;;;;5071884;28;20041;-70
2023/08/15 11:45:22;;;;;;;9.50;3.60;;;;;;;;;;5062072;28;20028;-70
2023/08/15 11:47:57;;;;;;;7.95;3.55;;;;;;;;;;5069575;28;20468;-69
2023/08/15 11:50:25;;;;;;;9.20;3.42;;;;;;;;;;5077305;28;20033;-69
2023/08/15 11:52:51;;;;;;;6.45;3.08;;;;;;;;;;5061595;28;20383;-69
2023/08/15 11:55:18;;;;;;;7.63;3.15;;;;;;;;;;5068707;28;20601;-69
2023/08/15 11:57:45;;;;;;;9.25;3.40;;;;;;;;;;5083995;28;20023;-69
2023/08/15 12:00:11;;;;;;;7.25;2.88;;;;;;;;;;5076536;28;20386;-69
2023/08/15 12:02:45;;;;;;;7.95;3.47;;;;;;;;;;5058232;28;20036;-70
2023/08/15 12:05:12;;;;;;;8.13;3.22;;;;;;;;;;5067390;28;20033;-69
2023/08/15 12:07:38;;;;;;;8.52;3.28;;;;;;;;;;5071537;28;20033;-69
2023/08/15 12:10:06;;;;;;;8.63;3.47;;;;;;;;;;5057149;28;20497;-69
2023/08/15 12:12:41;;;;;;;7.55;3.38;;;;;;;;;;5066279;28;20108;-69
2023/08/15 12:15:08;;;;;;;8.18;3.63;;;;;;;;;;5082849;28;20032;-69
2023/08/15 12:17:35;;;;;;;8.07;3.03;;;;;;;;;;5062478;28;20434;-69
2023/08/15 12:20:03;;;;;;;8.25;3.50;;;;;;;;;;5069322;28;20050;-69
2023/08/15 12:22:29;;;;;;;7.40;3.33;;;;;;;;;;5056768;28;20111;-69
2023/08/15 12:24:56;;;;;;;7.65;3.80;;;;;;;;;;5075675;28;20569;-70
2023/08/15 12:27:22;;;;;;;9.32;5.35;;;;;;;;;;5069530;28;20024;-70
2023/08/15 12:29:48;;;;;;;8.88;3.50;;;;;;;;;;5061600;28;20043;-70
2023/08/15 12:32:14;;;;;;;7.78;3.30;;;;;;;;;;5055435;28;20028;-69
2023/08/15 12:34:41;;;;;;;6.78;3.45;;;;;;;;;;5061521;28;21525;-70
2023/08/15 12:37:07;;;;;;;10.20;3.60;;;;;;;;;;5060686;28;20048;-70
2023/08/15 12:39:33;;;;;;;7.47;3.38;;;;;;;;;;5061019;28;20554;-73
2023/08/15 12:41:59;;;;;;;7.35;3.50;;;;;;;;;;5069981;28;20035;-69
2023/08/15 12:44:25;;;;;;;7.85;3.40;;;;;;;;;;5063745;28;20040;-69
2023/08/15 12:46:51;;;;;;;5.32;3.33;;;;;;;;;;5064751;28;20032;-69
2023/08/15 12:49:17;;;;;;;6.88;3.05;;;;;;;;;;5058632;28;20033;-68
2023/08/15 12:51:43;;;;;;;7.60;3.13;;;;;;;;;;5069739;28;20407;-68
2023/08/15 12:54:09;;;;;;;6.90;3.10;;;;;;;;;;5065593;28;20057;-68